Time;durP1;ratioP1;P1;durP2;ratioP2;P2;SDS_P1;SDS_P2;PMS_P1;PMS_P2;Temp;Humidity;BMP_temperature;BMP_pressure;BME280_temperature;BME280_humidity;BME280_pressure;Samples;Min_cycle;Max_cycle;Signal;HPM_P1;HPM_P2
2022/03/09 00:00:38;;;;;;;31.08;14.40;;;;;;;;;;6064513;23;20050;-56
2022/03/09 00:03:03;;;;;;;24.90;12.90;;;;;;;;;;6055362;23;20015;-52
2022/03/09 00:05:28;;;;;;;23.90;12.20;;;;;;;;;;6062677;23;20030;-54
2022/03/09 00:07:54;;;;;;;23.52;12.70;;;;;;;;;;6061156;23;20019;-56
2022/03/09 00:10:19;;;;;;;24.35;11.82;;;;;;;;;;6063326;23;20026;-51
2022/03/09 00:12:44;;;;;;;34.55;13.27;;;;;;;;;;6062354;23;20099;-56
2022/03/09 00:15:10;;;;;;;23.67;12.43;;;;;;;;;;6063850;23;20101;-53
2022/03/09 00:17:35;;;;;;;30.95;13.45;;;;;;;;;;6062327;23;20066;-54
2022/03/09 00:20:00;;;;;;;26.63;13.27;;;;;;;;;;6062998;23;20487;-56
2022/03/09 00:22:26;;;;;;;29.27;12.70;;;;;;;;;;6064594;23;20026;-56
2022/03/09 00:24:51;;;;;;;21.63;12.55;;;;;;;;;;6065224;23;20011;-56
2022/03/09 00:27:16;;;;;;;29.15;11.32;;;;;;;;;;6063113;23;20018;-56
2022/03/09 00:29:41;;;;;;;29.27;11.43;;;;;;;;;;6066038;23;20010;-53
2022/03/09 00:32:07;;;;;;;19.80;10.43;;;;;;;;;;6064773;23;20015;-55
2022/03/09 00:34:32;;;;;;;30.40;12.32;;;;;;;;;;6063450;23;20108;-56
2022/03/09 00:36:58;;;;;;;24.08;10.07;;;;;;;;;;6065276;23;20019;-56
2022/03/09 00:39:23;;;;;;;25.38;11.55;;;;;;;;;;6064636;23;20528;-55
2022/03/09 00:41:48;;;;;;;30.33;11.40;;;;;;;;;;6067797;23;20045;-56
2022/03/09 00:44:13;;;;;;;26.23;11.35;;;;;;;;;;6066282;23;20015;-54
2022/03/09 00:46:39;;;;;;;38.90;11.35;;;;;;;;;;6067747;23;20015;-56
2022/03/09 00:49:04;;;;;;;19.75;11.32;;;;;;;;;;6067208;23;20070;-55
2022/03/09 00:51:29;;;;;;;39.88;12.38;;;;;;;;;;6067261;23;20015;-53
2022/03/09 00:53:55;;;;;;;26.23;11.27;;;;;;;;;;6066714;23;20654;-55
2022/03/09 00:56:20;;;;;;;22.17;10.73;;;;;;;;;;6067196;23;20523;-53
2022/03/09 00:58:46;;;;;;;23.88;10.20;;;;;;;;;;6066964;23;20019;-54
2022/03/09 01:01:11;;;;;;;30.95;13.60;;;;;;;;;;6067135;23;20201;-53
2022/03/09 01:03:37;;;;;;;23.42;10.55;;;;;;;;;;6065867;23;20014;-56
2022/03/09 01:06:02;;;;;;;26.67;11.45;;;;;;;;;;6065941;23;20073;-52
2022/03/09 01:08:27;;;;;;;28.63;11.20;;;;;;;;;;6066114;23;20037;-52
2022/03/09 01:10:53;;;;;;;28.15;10.95;;;;;;;;;;6067516;23;20023;-50
2022/03/09 01:13:18;;;;;;;31.80;11.07;;;;;;;;;;6065512;23;20026;-56
2022/03/09 01:15:43;;;;;;;34.53;12.25;;;;;;;;;;6066673;23;20034;-53
2022/03/09 01:18:09;;;;;;;37.65;12.27;;;;;;;;;;6066723;23;20018;-53
2022/03/09 01:20:34;;;;;;;24.50;10.48;;;;;;;;;;6065808;23;20041;-56
2022/03/09 01:23:00;;;;;;;32.58;10.77;;;;;;;;;;6067087;23;20123;-55
2022/03/09 01:25:25;;;;;;;21.08;10.25;;;;;;;;;;6063204;23;20043;-54
2022/03/09 01:27:50;;;;;;;27.30;10.70;;;;;;;;;;6067237;23;20014;-56
2022/03/09 01:30:16;;;;;;;35.42;11.98;;;;;;;;;;6064600;23;20103;-54
2022/03/09 01:32:41;;;;;;;31.63;10.27;;;;;;;;;;6067653;23;20019;-56
2022/03/09 01:35:07;;;;;;;30.40;10.48;;;;;;;;;;6064411;23;20018;-53
2022/03/09 01:37:32;;;;;;;26.10;11.40;;;;;;;;;;6067083;23;20066;-53
2022/03/09 01:39:57;;;;;;;29.50;10.82;;;;;;;;;;6066549;23;20791;-56
2022/03/09 01:42:22;;;;;;;29.08;10.13;;;;;;;;;;6067621;23;20025;-52
2022/03/09 01:44:48;;;;;;;25.77;10.18;;;;;;;;;;6065669;23;20026;-55
2022/03/09 01:47:13;;;;;;;32.97;9.90;;;;;;;;;;6066602;23;20021;-56
2022/03/09 01:49:39;;;;;;;18.98;10.88;;;;;;;;;;6066248;23;20456;-54
2022/03/09 01:52:04;;;;;;;30.85;10.70;;;;;;;;;;6067105;23;20010;-56
2022/03/09 01:54:29;;;;;;;34.72;11.65;;;;;;;;;;6064793;23;20019;-52
2022/03/09 01:56:55;;;;;;;20.67;10.35;;;;;;;;;;6067266;23;20027;-55
2022/03/09 01:59:21;;;;;;;40.90;11.65;;;;;;;;;;6065889;23;20019;-55
2022/03/09 02:01:46;;;;;;;33.38;11.55;;;;;;;;;;6067623;23;20608;-55
2022/03/09 02:04:12;;;;;;;32.13;11.23;;;;;;;;;;6064713;23;20037;-56
2022/03/09 02:06:40;;;;;;;33.67;11.38;;;;;;;;;;6067139;23;20083;-54
2022/03/09 02:11:51;;;;;;;26.08;11.57;;;;;;;;;;6066091;23;20042;-55
2022/03/09 02:14:26;;;;;;;27.25;12.77;;;;;;;;;;6065537;23;20049;-56
2022/03/09 02:16:51;;;;;;;30.65;13.32;;;;;;;;;;6065562;23;20514;-55
2022/03/09 02:19:16;;;;;;;35.03;12.20;;;;;;;;;;6066097;23;20071;-52
2022/03/09 02:21:42;;;;;;;31.73;12.60;;;;;;;;;;6066052;23;20613;-55
2022/03/09 02:24:07;;;;;;;34.47;13.40;;;;;;;;;;6065193;23;20030;-55
2022/03/09 02:26:33;;;;;;;28.13;13.00;;;;;;;;;;6066101;23;20546;-56
2022/03/09 02:28:58;;;;;;;28.15;13.07;;;;;;;;;;6064043;23;20014;-54
2022/03/09 02:31:23;;;;;;;33.97;12.63;;;;;;;;;;6065520;23;20022;-55
2022/03/09 02:33:48;;;;;;;29.30;12.90;;;;;;;;;;6065497;23;20019;-51
2022/03/09 02:36:14;;;;;;;32.47;14.07;;;;;;;;;;6064259;23;20930;-53
2022/03/09 02:38:39;;;;;;;28.77;13.43;;;;;;;;;;6066589;23;20051;-52
2022/03/09 02:41:04;;;;;;;32.42;13.15;;;;;;;;;;6065450;23;20050;-56
2022/03/09 02:43:30;;;;;;;33.72;13.85;;;;;;;;;;6065250;23;20017;-54
2022/03/09 02:45:55;;;;;;;24.95;12.57;;;;;;;;;;6065294;23;20030;-56
2022/03/09 02:48:20;;;;;;;33.78;12.18;;;;;;;;;;6065881;23;20638;-53
2022/03/09 02:50:46;;;;;;;25.35;12.05;;;;;;;;;;6065349;23;20042;-56
2022/03/09 02:53:11;;;;;;;23.40;11.57;;;;;;;;;;6066429;23;20015;-55
2022/03/09 02:55:36;;;;;;;24.88;12.82;;;;;;;;;;6064041;23;20019;-54
2022/03/09 02:58:02;;;;;;;30.33;11.80;;;;;;;;;;6066583;23;20038;-55
2022/03/09 03:00:27;;;;;;;27.08;12.50;;;;;;;;;;6065510;23;20018;-53
2022/03/09 03:02:52;;;;;;;26.70;13.20;;;;;;;;;;6066440;23;20017;-54
2022/03/09 03:05:17;;;;;;;28.40;13.10;;;;;;;;;;6061318;23;20019;-51
2022/03/09 03:07:42;;;;;;;28.15;13.13;;;;;;;;;;6065820;23;20015;-52
2022/03/09 03:10:08;;;;;;;26.13;11.50;;;;;;;;;;6064537;23;20027;-52
2022/03/09 03:12:34;;;;;;;28.83;12.65;;;;;;;;;;6040576;23;20079;-55
2022/03/09 03:14:59;;;;;;;21.00;9.77;;;;;;;;;;6064423;23;20023;-56
2022/03/09 03:17:24;;;;;;;26.20;10.90;;;;;;;;;;6065276;23;20027;-56
2022/03/09 03:19:50;;;;;;;21.77;10.05;;;;;;;;;;6056271;23;20063;-51
2022/03/09 03:22:15;;;;;;;22.52;9.65;;;;;;;;;;6064830;23;20380;-54
2022/03/09 03:24:40;;;;;;;25.27;10.27;;;;;;;;;;6065994;23;20531;-56
2022/03/09 03:27:05;;;;;;;30.02;9.38;;;;;;;;;;6064865;23;20043;-53
2022/03/09 03:29:31;;;;;;;27.00;10.88;;;;;;;;;;6064833;23;20019;-56
2022/03/09 03:31:56;;;;;;;20.50;11.02;;;;;;;;;;6066740;23;20018;-52
2022/03/09 03:34:21;;;;;;;30.42;12.70;;;;;;;;;;6062241;23;20063;-56
2022/03/09 03:36:47;;;;;;;27.77;11.63;;;;;;;;;;6038628;23;20022;-53
2022/03/09 03:39:14;;;;;;;29.75;11.60;;;;;;;;;;6066056;23;20015;-49
2022/03/09 03:41:39;;;;;;;32.95;14.02;;;;;;;;;;6064951;23;20093;-54
2022/03/09 03:44:04;;;;;;;29.05;13.25;;;;;;;;;;6065078;23;20051;-56
2022/03/09 03:46:30;;;;;;;29.63;13.43;;;;;;;;;;6063770;23;20051;-53
2022/03/09 03:48:55;;;;;;;30.88;13.43;;;;;;;;;;6065545;23;20015;-51
2022/03/09 03:51:20;;;;;;;39.35;15.20;;;;;;;;;;6063831;23;20018;-52
2022/03/09 03:53:45;;;;;;;29.75;12.90;;;;;;;;;;6064636;23;20615;-55
2022/03/09 03:56:11;;;;;;;33.63;14.02;;;;;;;;;;6067157;23;20023;-56
2022/03/09 03:58:36;;;;;;;27.23;13.93;;;;;;;;;;6066085;23;20715;-57
2022/03/09 04:01:01;;;;;;;26.65;14.40;;;;;;;;;;6061288;23;20007;-55
2022/03/09 04:03:27;;;;;;;30.67;14.63;;;;;;;;;;6066802;23;20556;-57
2022/03/09 04:05:52;;;;;;;30.55;12.68;;;;;;;;;;6067236;23;20007;-54
2022/03/09 04:08:17;;;;;;;33.53;14.45;;;;;;;;;;6066702;23;20026;-55
2022/03/09 04:10:42;;;;;;;41.88;16.60;;;;;;;;;;6068577;23;20389;-55
2022/03/09 04:13:08;;;;;;;27.67;12.27;;;;;;;;;;6066379;23;20082;-54
2022/03/09 04:15:33;;;;;;;21.77;11.00;;;;;;;;;;6067476;23;20030;-54
2022/03/09 04:17:59;;;;;;;30.58;12.75;;;;;;;;;;6067247;23;20026;-56
2022/03/09 04:20:24;;;;;;;29.33;12.18;;;;;;;;;;6066989;23;20029;-54
2022/03/09 04:22:49;;;;;;;31.88;12.77;;;;;;;;;;6067773;23;20022;-55
2022/03/09 04:25:14;;;;;;;26.77;12.65;;;;;;;;;;6063398;23;20019;-55
2022/03/09 04:27:40;;;;;;;26.63;11.40;;;;;;;;;;6065367;23;20011;-55
2022/03/09 04:30:05;;;;;;;24.42;11.77;;;;;;;;;;6067296;23;20027;-56
2022/03/09 04:32:32;;;;;;;32.08;11.90;;;;;;;;;;6063792;23;20015;-56
2022/03/09 04:34:57;;;;;;;26.23;11.00;;;;;;;;;;6066326;23;20087;-56
2022/03/09 04:37:23;;;;;;;26.75;12.32;;;;;;;;;;6065718;23;20015;-53
2022/03/09 04:39:48;;;;;;;25.38;11.18;;;;;;;;;;6067689;23;20043;-57
2022/03/09 04:42:13;;;;;;;35.50;12.70;;;;;;;;;;6065778;23;20011;-54
2022/03/09 04:44:39;;;;;;;24.92;12.43;;;;;;;;;;6068266;23;20071;-55
2022/03/09 04:47:04;;;;;;;20.05;9.98;;;;;;;;;;6066783;23;20015;-54
2022/03/09 04:49:30;;;;;;;24.15;10.27;;;;;;;;;;6067906;23;20019;-54
2022/03/09 04:51:55;;;;;;;39.10;10.20;;;;;;;;;;6065539;23;20022;-55
2022/03/09 04:54:20;;;;;;;24.25;10.35;;;;;;;;;;6067792;23;20038;-55
2022/03/09 04:56:45;;;;;;;20.55;10.18;;;;;;;;;;6065508;23;20027;-54
2022/03/09 04:59:11;;;;;;;22.58;8.00;;;;;;;;;;6067830;23;20019;-55
2022/03/09 05:01:36;;;;;;;24.48;9.65;;;;;;;;;;6066221;23;20495;-54
2022/03/09 05:04:01;;;;;;;27.88;8.52;;;;;;;;;;6067798;23;20026;-54
2022/03/09 05:06:26;;;;;;;21.52;9.43;;;;;;;;;;6062971;23;20018;-56
2022/03/09 05:08:52;;;;;;;21.45;9.70;;;;;;;;;;6066875;23;20015;-54
2022/03/09 05:11:17;;;;;;;25.92;7.90;;;;;;;;;;6065499;23;20085;-54
2022/03/09 05:13:42;;;;;;;17.33;7.63;;;;;;;;;;6067857;23;20058;-54
2022/03/09 05:16:07;;;;;;;18.80;8.05;;;;;;;;;;6065404;23;20068;-55
2022/03/09 05:18:37;;;;;;;28.27;8.75;;;;;;;;;;6067216;23;20456;-55
2022/03/09 05:21:02;;;;;;;16.02;7.18;;;;;;;;;;6065353;23;20039;-55
2022/03/09 05:23:27;;;;;;;21.85;8.70;;;;;;;;;;6067552;23;20019;-56
2022/03/09 05:25:52;;;;;;;15.60;7.47;;;;;;;;;;6064956;23;20026;-54
2022/03/09 05:28:17;;;;;;;17.77;7.60;;;;;;;;;;6066735;23;20019;-55
2022/03/09 05:30:43;;;;;;;23.42;7.55;;;;;;;;;;6065180;23;20322;-56
2022/03/09 05:33:08;;;;;;;17.63;8.48;;;;;;;;;;6066682;23;20019;-57
2022/03/09 05:35:33;;;;;;;17.45;8.73;;;;;;;;;;6063994;23;20047;-51
2022/03/09 05:37:58;;;;;;;19.70;7.47;;;;;;;;;;6066675;23;20035;-54
2022/03/09 05:40:24;;;;;;;26.60;9.00;;;;;;;;;;6064787;23;20034;-54
2022/03/09 05:42:49;;;;;;;22.88;7.80;;;;;;;;;;6066099;23;20026;-56
2022/03/09 05:45:14;;;;;;;28.35;7.82;;;;;;;;;;6063895;23;20251;-56
2022/03/09 05:47:39;;;;;;;23.67;8.77;;;;;;;;;;6066873;23;20126;-52
2022/03/09 05:50:05;;;;;;;28.60;7.88;;;;;;;;;;6066247;23;20011;-56
2022/03/09 05:52:30;;;;;;;22.13;7.03;;;;;;;;;;6066355;23;20039;-53
2022/03/09 05:54:56;;;;;;;19.25;7.55;;;;;;;;;;6065071;23;20034;-55
2022/03/09 05:57:22;;;;;;;13.23;5.47;;;;;;;;;;6064533;23;20472;-54
2022/03/09 05:59:47;;;;;;;19.42;6.40;;;;;;;;;;6065788;23;20580;-57
2022/03/09 06:02:13;;;;;;;27.15;6.57;;;;;;;;;;6066462;23;20018;-53
2022/03/09 06:04:38;;;;;;;16.67;6.57;;;;;;;;;;6065653;23;20011;-55
2022/03/09 06:07:03;;;;;;;12.75;5.78;;;;;;;;;;6065341;23;20075;-52
2022/03/09 06:09:29;;;;;;;19.10;5.60;;;;;;;;;;6065627;23;20345;-55
2022/03/09 06:11:54;;;;;;;20.15;6.45;;;;;;;;;;6066425;23;20070;-55
2022/03/09 06:14:19;;;;;;;15.85;5.75;;;;;;;;;;6065298;23;20074;-53
2022/03/09 06:16:47;;;;;;;17.48;5.72;;;;;;;;;;6066401;23;20031;-53
2022/03/09 06:19:12;;;;;;;13.90;5.72;;;;;;;;;;6064453;23;20022;-53
2022/03/09 06:21:38;;;;;;;29.10;7.07;;;;;;;;;;6067754;23;20026;-55
2022/03/09 06:24:03;;;;;;;16.52;6.28;;;;;;;;;;6065168;23;20023;-54
2022/03/09 06:26:28;;;;;;;22.85;5.88;;;;;;;;;;6065511;23;20026;-53
2022/03/09 06:28:54;;;;;;;26.63;6.97;;;;;;;;;;6040233;23;20015;-56
2022/03/09 06:31:19;;;;;;;17.20;5.43;;;;;;;;;;6063800;23;20015;-57
2022/03/09 06:33:44;;;;;;;23.70;6.25;;;;;;;;;;6066754;23;20018;-53
2022/03/09 06:36:09;;;;;;;17.92;6.10;;;;;;;;;;6065015;23;20030;-54
2022/03/09 06:38:35;;;;;;;21.77;7.05;;;;;;;;;;6065010;23;20011;-53
2022/03/09 06:41:00;;;;;;;21.80;7.40;;;;;;;;;;6065846;23;20651;-57
2022/03/09 06:43:26;;;;;;;24.40;7.10;;;;;;;;;;6064943;23;20030;-54
2022/03/09 06:45:51;;;;;;;20.75;6.88;;;;;;;;;;6066037;23;20015;-57
2022/03/09 06:48:16;;;;;;;23.75;6.20;;;;;;;;;;6064920;23;20906;-53
2022/03/09 06:50:41;;;;;;;19.00;6.00;;;;;;;;;;6066754;23;20062;-53
2022/03/09 06:53:07;;;;;;;23.10;5.70;;;;;;;;;;6064838;23;20042;-56
2022/03/09 06:55:32;;;;;;;21.83;5.03;;;;;;;;;;6064488;23;20019;-56
2022/03/09 06:57:57;;;;;;;25.50;6.72;;;;;;;;;;6065669;23;20026;-56
2022/03/09 07:00:23;;;;;;;24.25;6.30;;;;;;;;;;6064649;23;20038;-55
2022/03/09 07:02:48;;;;;;;27.67;6.20;;;;;;;;;;6065394;23;20055;-52
2022/03/09 07:05:14;;;;;;;18.40;5.38;;;;;;;;;;6063459;23;20018;-53
2022/03/09 07:07:39;;;;;;;18.73;6.68;;;;;;;;;;6066638;23;20444;-53
2022/03/09 07:10:05;;;;;;;21.73;5.25;;;;;;;;;;6065593;23;20051;-56
2022/03/09 07:12:31;;;;;;;15.50;5.15;;;;;;;;;;6060096;23;20067;-54
2022/03/09 07:14:56;;;;;;;20.67;4.28;;;;;;;;;;6064785;23;20083;-54
2022/03/09 07:17:22;;;;;;;27.20;6.63;;;;;;;;;;6061432;23;20030;-55
2022/03/09 07:19:47;;;;;;;24.67;5.65;;;;;;;;;;6066064;23;20075;-56
2022/03/09 07:22:12;;;;;;;19.30;5.07;;;;;;;;;;6062251;23;20086;-50
2022/03/09 07:24:37;;;;;;;15.20;4.13;;;;;;;;;;6066058;23;20085;-51
2022/03/09 07:27:03;;;;;;;11.95;4.35;;;;;;;;;;6064866;23;20003;-55
2022/03/09 07:29:28;;;;;;;18.92;4.30;;;;;;;;;;6065044;23;20047;-55
2022/03/09 07:31:54;;;;;;;20.80;4.68;;;;;;;;;;6063743;23;20524;-55
2022/03/09 07:34:22;;;;;;;20.35;4.80;;;;;;;;;;6065356;23;20019;-55
2022/03/09 07:36:48;;;;;;;24.13;6.00;;;;;;;;;;6062736;23;20031;-56
2022/03/09 07:39:14;;;;;;;16.75;5.43;;;;;;;;;;6065042;23;20360;-52
2022/03/09 07:41:39;;;;;;;14.77;4.97;;;;;;;;;;6063813;23;20022;-55
2022/03/09 07:44:04;;;;;;;14.35;4.95;;;;;;;;;;6065192;23;20109;-54
2022/03/09 07:46:30;;;;;;;15.35;4.38;;;;;;;;;;6063490;23;20058;-56
2022/03/09 07:48:55;;;;;;;18.38;3.83;;;;;;;;;;6065093;23;20022;-50
2022/03/09 07:51:20;;;;;;;15.40;4.72;;;;;;;;;;6063695;23;20007;-54
2022/03/09 07:53:45;;;;;;;21.63;5.47;;;;;;;;;;6065771;23;20019;-55
2022/03/09 07:56:11;;;;;;;15.00;5.00;;;;;;;;;;6037517;23;20027;-53
2022/03/09 07:58:37;;;;;;;25.83;5.32;;;;;;;;;;6064993;23;20006;-56
2022/03/09 08:01:02;;;;;;;16.58;4.22;;;;;;;;;;6063418;23;20055;-55
2022/03/09 08:03:27;;;;;;;14.40;3.65;;;;;;;;;;6039949;23;20098;-55
2022/03/09 08:05:53;;;;;;;15.35;3.90;;;;;;;;;;6064475;23;20317;-57
2022/03/09 08:08:18;;;;;;;16.52;4.70;;;;;;;;;;6064207;23;20015;-55
2022/03/09 08:10:43;;;;;;;10.68;3.15;;;;;;;;;;6065269;23;20090;-56
2022/03/09 08:13:09;;;;;;;9.57;3.35;;;;;;;;;;6039578;23;20026;-55
2022/03/09 08:15:35;;;;;;;12.38;4.22;;;;;;;;;;6039822;23;20079;-55
2022/03/09 08:18:00;;;;;;;10.15;3.80;;;;;;;;;;6064836;23;20038;-54
2022/03/09 08:20:25;;;;;;;15.23;3.83;;;;;;;;;;6064553;23;20022;-53
2022/03/09 08:22:51;;;;;;;21.10;3.60;;;;;;;;;;6064311;23;20017;-53
2022/03/09 08:25:16;;;;;;;8.90;3.53;;;;;;;;;;6065225;23;20026;-55
2022/03/09 08:27:41;;;;;;;29.30;4.85;;;;;;;;;;6063751;23;20015;-54
2022/03/09 08:30:07;;;;;;;12.45;3.70;;;;;;;;;;6059823;23;20023;-54
2022/03/09 08:32:32;;;;;;;20.77;4.28;;;;;;;;;;6060280;23;20031;-55
2022/03/09 08:34:57;;;;;;;22.15;5.07;;;;;;;;;;6064336;23;20030;-56
2022/03/09 08:37:22;;;;;;;19.48;4.90;;;;;;;;;;6063514;23;20019;-56
2022/03/09 08:39:48;;;;;;;21.48;4.55;;;;;;;;;;6040238;23;20017;-56
2022/03/09 08:42:14;;;;;;;15.23;3.75;;;;;;;;;;6061732;23;20038;-53
2022/03/09 08:44:39;;;;;;;13.40;3.95;;;;;;;;;;6067110;23;20017;-54
2022/03/09 08:47:06;;;;;;;13.27;3.03;;;;;;;;;;6066068;23;20019;-55
2022/03/09 08:49:33;;;;;;;25.33;3.80;;;;;;;;;;6066880;23;20015;-55
2022/03/09 08:51:58;;;;;;;12.63;3.65;;;;;;;;;;6058348;23;20018;-56
2022/03/09 08:54:23;;;;;;;14.00;3.65;;;;;;;;;;6063850;23;20015;-54
2022/03/09 08:56:49;;;;;;;17.10;4.10;;;;;;;;;;6059730;23;20046;-54
2022/03/09 08:59:14;;;;;;;14.52;5.20;;;;;;;;;;6063341;23;20026;-57
2022/03/09 09:01:39;;;;;;;14.18;3.85;;;;;;;;;;6059844;23;20606;-54
2022/03/09 09:04:04;;;;;;;16.63;4.97;;;;;;;;;;6063791;23;20011;-53
2022/03/09 09:06:30;;;;;;;14.90;2.70;;;;;;;;;;6060629;23;20019;-55
2022/03/09 09:08:55;;;;;;;14.90;4.75;;;;;;;;;;6064276;23;20042;-55
2022/03/09 09:11:20;;;;;;;17.73;3.85;;;;;;;;;;6061700;23;20061;-55
2022/03/09 09:13:46;;;;;;;19.15;3.60;;;;;;;;;;6063581;23;20304;-55
2022/03/09 09:16:12;;;;;;;11.20;2.75;;;;;;;;;;6051678;23;20026;-55
2022/03/09 09:18:38;;;;;;;15.45;3.75;;;;;;;;;;6057687;23;20021;-55
2022/03/09 09:21:04;;;;;;;13.23;3.85;;;;;;;;;;6061299;23;20010;-52
2022/03/09 09:23:29;;;;;;;9.27;3.97;;;;;;;;;;6060662;23;20021;-54
2022/03/09 09:25:54;;;;;;;14.25;3.63;;;;;;;;;;6057876;23;20049;-55
2022/03/09 09:28:19;;;;;;;13.35;3.33;;;;;;;;;;6063883;23;20213;-55
2022/03/09 09:30:45;;;;;;;18.65;4.13;;;;;;;;;;6060531;23;20079;-54
2022/03/09 09:33:10;;;;;;;13.07;3.38;;;;;;;;;;6064115;23;20375;-56
2022/03/09 09:35:36;;;;;;;10.38;3.13;;;;;;;;;;6063325;23;20025;-56
2022/03/09 09:38:06;;;;;;;18.30;3.08;;;;;;;;;;6038709;23;20021;-56
2022/03/09 09:40:32;;;;;;;16.83;3.60;;;;;;;;;;6064199;23;20015;-55
2022/03/09 09:42:58;;;;;;;13.13;3.47;;;;;;;;;;6062731;23;20011;-55
2022/03/09 09:45:23;;;;;;;11.98;2.90;;;;;;;;;;6063936;23;20106;-54
2022/03/09 09:47:48;;;;;;;16.33;2.58;;;;;;;;;;6063639;23;20047;-53
2022/03/09 09:50:14;;;;;;;16.38;3.30;;;;;;;;;;6063317;23;20019;-55
2022/03/09 09:52:40;;;;;;;12.32;2.63;;;;;;;;;;6063040;23;20011;-53
2022/03/09 09:55:07;;;;;;;10.93;2.83;;;;;;;;;;6064169;23;20390;-53
2022/03/09 09:57:33;;;;;;;11.77;3.10;;;;;;;;;;6062086;23;20022;-56
2022/03/09 09:59:58;;;;;;;16.42;2.78;;;;;;;;;;6063530;23;20749;-55
2022/03/09 10:02:24;;;;;;;11.63;2.50;;;;;;;;;;6037058;23;20019;-53
2022/03/09 10:04:50;;;;;;;10.13;2.75;;;;;;;;;;6063395;23;20011;-55
2022/03/09 10:07:16;;;;;;;18.27;4.05;;;;;;;;;;6063154;23;20021;-52
2022/03/09 10:09:41;;;;;;;21.58;2.92;;;;;;;;;;6062596;23;20015;-54
2022/03/09 10:12:07;;;;;;;14.45;3.45;;;;;;;;;;6064633;23;20010;-53
2022/03/09 10:14:41;;;;;;;13.27;3.30;;;;;;;;;;6059238;23;20011;-56
2022/03/09 10:17:11;;;;;;;10.57;2.63;;;;;;;;;;6064498;23;20038;-55
2022/03/09 10:19:36;;;;;;;;;;;;;;;;;;6062173;23;20211;-56
2022/03/09 10:22:24;;;;;;;9.32;2.70;;;;;;;;;;6063435;23;19980;-53
2022/03/09 10:24:49;;;;;;;12.65;2.75;;;;;;;;;;6060411;23;20479;-57
2022/03/09 10:27:33;;;;;;;11.32;2.55;;;;;;;;;;6065207;23;20003;-54
2022/03/09 10:29:59;;;;;;;10.30;3.22;;;;;;;;;;6063271;23;20015;-53
2022/03/09 10:32:45;;;;;;;7.60;2.60;;;;;;;;;;6055189;23;20019;-54
2022/03/09 10:35:11;;;;;;;4.95;2.35;;;;;;;;;;6057717;23;20050;-55
2022/03/09 10:37:40;;;;;;;14.65;3.17;;;;;;;;;;6061323;23;20015;-51
2022/03/09 10:40:12;;;;;;;13.82;4.25;;;;;;;;;;6063694;23;20011;-53
2022/03/09 10:42:38;;;;;;;17.45;3.17;;;;;;;;;;6060513;23;20122;-53
2022/03/09 10:45:05;;;;;;;15.80;4.07;;;;;;;;;;6063693;23;20022;-55
2022/03/09 10:47:33;;;;;;;15.70;3.10;;;;;;;;;;6036087;23;20103;-54
2022/03/09 10:50:08;;;;;;;10.25;2.95;;;;;;;;;;6064009;23;20495;-54
2022/03/09 10:52:49;;;;;;;17.98;2.85;;;;;;;;;;6060531;23;20007;-54
2022/03/09 10:55:20;;;;;;;9.93;2.40;;;;;;;;;;6060588;23;20027;-54
2022/03/09 10:57:45;;;;;;;8.60;2.20;;;;;;;;;;6064077;23;20115;-53
2022/03/09 11:00:11;;;;;;;13.43;2.67;;;;;;;;;;6062206;23;20015;-51
2022/03/09 11:02:47;;;;;;;13.73;3.50;;;;;;;;;;6062960;23;20015;-52
2022/03/09 11:05:17;;;;;;;7.25;2.33;;;;;;;;;;6060193;23;20069;-51
2022/03/09 11:07:43;;;;;;;9.77;2.63;;;;;;;;;;6063536;23;20309;-56
2022/03/09 11:10:09;;;;;;;11.48;2.83;;;;;;;;;;6062321;23;20057;-56
2022/03/09 11:12:36;;;;;;;11.77;2.17;;;;;;;;;;6061336;23;20007;-52
2022/03/09 11:15:01;;;;;;;6.15;2.38;;;;;;;;;;6060595;23;20031;-56
2022/03/09 11:17:27;;;;;;;12.23;2.75;;;;;;;;;;6055360;23;20025;-55
2022/03/09 11:19:52;;;;;;;11.88;2.90;;;;;;;;;;6062450;23;20015;-56
2022/03/09 11:22:18;;;;;;;8.05;2.63;;;;;;;;;;6059062;23;20022;-56
2022/03/09 11:24:43;;;;;;;10.85;2.55;;;;;;;;;;6063982;23;20007;-52
2022/03/09 11:27:10;;;;;;;9.10;2.17;;;;;;;;;;6062744;23;20082;-54
2022/03/09 11:29:36;;;;;;;14.05;3.15;;;;;;;;;;6037081;23;20003;-54
2022/03/09 11:32:03;;;;;;;9.23;3.17;;;;;;;;;;6061568;23;20499;-56
2022/03/09 11:34:39;;;;;;;11.15;2.70;;;;;;;;;;6037707;23;20664;-55
2022/03/09 11:37:08;;;;;;;25.77;3.15;;;;;;;;;;6062662;23;20030;-53
2022/03/09 11:39:35;;;;;;;15.20;2.42;;;;;;;;;;6064067;23;20030;-55
2022/03/09 11:42:19;;;;;;;9.77;3.38;;;;;;;;;;6061872;23;20042;-56
2022/03/09 11:44:44;;;;;;;13.65;2.38;;;;;;;;;;6063977;23;20006;-54
2022/03/09 11:47:09;;;;;;;8.38;2.42;;;;;;;;;;6061686;23;20021;-57
2022/03/09 11:49:49;;;;;;;14.63;2.67;;;;;;;;;;6057624;23;20082;-55
2022/03/09 11:52:19;;;;;;;17.23;2.78;;;;;;;;;;6062995;23;20015;-52
2022/03/09 11:54:59;;;;;;;7.93;2.47;;;;;;;;;;6060658;23;20018;-54
2022/03/09 11:57:48;;;;;;;8.32;2.10;;;;;;;;;;6061248;23;20014;-53
2022/03/09 12:00:13;;;;;;;8.50;2.47;;;;;;;;;;6045356;23;20022;-55
2022/03/09 12:02:54;;;;;;;6.88;2.00;;;;;;;;;;6062820;23;20011;-56
2022/03/09 12:05:31;;;;;;;5.75;1.88;;;;;;;;;;6061404;23;20039;-53
2022/03/09 12:08:00;;;;;;;17.63;3.47;;;;;;;;;;6064349;23;20015;-56
2022/03/09 12:10:54;;;;;;;9.35;3.08;;;;;;;;;;6064291;23;20041;-54
2022/03/09 12:13:22;;;;;;;6.32;2.67;;;;;;;;;;6040146;23;20019;-51
2022/03/09 12:16:00;;;;;;;9.55;1.88;;;;;;;;;;6064885;23;20031;-54
2022/03/09 12:18:55;;;;;;;18.73;2.83;;;;;;;;;;6059834;23;20050;-50
2022/03/09 12:21:26;;;;;;;8.45;3.25;;;;;;;;;;6006994;23;20018;-53
2022/03/09 12:24:12;;;;;;;9.05;2.15;;;;;;;;;;6067338;23;20015;-52
2022/03/09 12:26:44;;;;;;;13.45;1.92;;;;;;;;;;6066029;23;20684;-54
2022/03/09 12:29:21;;;;;;;6.43;2.42;;;;;;;;;;6063282;23;20022;-54
2022/03/09 12:31:59;;;;;;;6.85;2.35;;;;;;;;;;6067063;23;20022;-54
2022/03/09 12:34:25;;;;;;;9.93;1.90;;;;;;;;;;6064299;23;20094;-55
2022/03/09 12:36:50;;;;;;;8.18;3.70;;;;;;;;;;6061725;23;20047;-53
2022/03/09 12:39:16;;;;;;;5.40;1.98;;;;;;;;;;6057979;23;20015;-50
2022/03/09 12:41:42;;;;;;;7.80;3.00;;;;;;;;;;6063366;23;20019;-55
2022/03/09 12:44:10;;;;;;;11.82;2.55;;;;;;;;;;6061477;23;20042;-54
2022/03/09 12:46:37;;;;;;;16.13;3.37;;;;;;;;;;6037709;23;20034;-55
2022/03/09 12:49:06;;;;;;;7.18;1.92;;;;;;;;;;6059824;23;20019;-54
2022/03/09 12:51:32;;;;;;;8.40;3.00;;;;;;;;;;6063464;23;21507;-56
2022/03/09 12:53:57;;;;;;;5.47;2.40;;;;;;;;;;6062972;23;20426;-53
2022/03/09 12:56:24;;;;;;;10.27;1.75;;;;;;;;;;6061367;23;20391;-56
2022/03/09 12:58:49;;;;;;;5.63;2.85;;;;;;;;;;6062418;23;20011;-54
2022/03/09 13:01:15;;;;;;;12.00;2.90;;;;;;;;;;6060576;23;20022;-53
2022/03/09 13:03:41;;;;;;;7.90;3.05;;;;;;;;;;6037162;23;20059;-53
2022/03/09 13:06:21;;;;;;;8.55;2.10;;;;;;;;;;6060124;23;20015;-54
2022/03/09 13:08:46;;;;;;;5.47;2.13;;;;;;;;;;6053760;23;20011;-56
2022/03/09 13:11:11;;;;;;;11.05;2.60;;;;;;;;;;6059643;23;20082;-47
2022/03/09 13:13:37;;;;;;;8.07;2.10;;;;;;;;;;6060940;23;20031;-57
2022/03/09 13:16:03;;;;;;;9.38;2.95;;;;;;;;;;6060673;23;20023;-56
2022/03/09 13:18:32;;;;;;;7.88;2.15;;;;;;;;;;6061009;23;21006;-55
2022/03/09 13:20:58;;;;;;;7.88;2.00;;;;;;;;;;6038909;23;20074;-54
2022/03/09 13:23:41;;;;;;;11.20;3.10;;;;;;;;;;6054845;23;20038;-52
2022/03/09 13:26:11;;;;;;;10.30;2.45;;;;;;;;;;6063929;23;20019;-54
2022/03/09 13:28:37;;;;;;;8.95;2.60;;;;;;;;;;6066334;23;20017;-56
2022/03/09 13:31:03;;;;;;;7.85;2.85;;;;;;;;;;6067337;23;20014;-53
2022/03/09 13:33:28;;;;;;;7.60;2.40;;;;;;;;;;6065810;23;20726;-54
2022/03/09 13:35:53;;;;;;;12.00;3.85;;;;;;;;;;6066136;23;20051;-56
2022/03/09 13:38:19;;;;;;;11.55;3.40;;;;;;;;;;6065107;23;20015;-53
2022/03/09 13:40:45;;;;;;;14.07;4.40;;;;;;;;;;6066658;23;20010;-55
2022/03/09 13:43:10;;;;;;;16.83;9.93;;;;;;;;;;6066184;23;20011;-51
2022/03/09 13:45:40;;;;;;;14.73;2.63;;;;;;;;;;6066823;23;20034;-53
2022/03/09 13:48:07;;;;;;;13.20;3.42;;;;;;;;;;6065790;23;20015;-51
2022/03/09 13:50:32;;;;;;;14.50;3.35;;;;;;;;;;6040805;23;20011;-53
2022/03/09 13:53:07;;;;;;;14.50;2.97;;;;;;;;;;6065484;23;20071;-54
2022/03/09 13:55:41;;;;;;;21.42;3.50;;;;;;;;;;6061685;23;20019;-55
2022/03/09 13:58:07;;;;;;;11.02;3.28;;;;;;;;;;6066214;23;20022;-52
2022/03/09 14:00:36;;;;;;;12.60;2.63;;;;;;;;;;6064075;23;20011;-55
2022/03/09 14:03:20;;;;;;;12.43;2.80;;;;;;;;;;6065819;23;20026;-54
2022/03/09 14:05:49;;;;;;;13.48;2.50;;;;;;;;;;6065768;23;20011;-52
2022/03/09 14:08:15;;;;;;;;;;;;;;;;;;6062750;23;20011;-55
2022/03/09 14:10:40;;;;;;;10.30;2.47;;;;;;;;;;6066603;23;19953;-53
2022/03/09 14:13:13;;;;;;;11.23;2.95;;;;;;;;;;6066072;23;20246;-52
2022/03/09 14:15:39;;;;;;;4.82;2.38;;;;;;;;;;6062759;23;20019;-55
2022/03/09 14:18:05;;;;;;;8.50;2.28;;;;;;;;;;6056731;23;20026;-55
2022/03/09 14:20:30;;;;;;;6.45;2.47;;;;;;;;;;6058937;23;20015;-56
2022/03/09 14:22:55;;;;;;;12.43;1.98;;;;;;;;;;6057208;23;20018;-56
2022/03/09 14:25:21;;;;;;;9.38;2.60;;;;;;;;;;6063755;23;20047;-55
2022/03/09 14:27:46;;;;;;;9.23;2.63;;;;;;;;;;6063820;23;20015;-55